sensor_id;sensor_type;location;lat;lon;timestamp;pressure;altitude;pressure_sealevel;temperature;humidity
9746;BME280;4912;50.836;12.958;2023-03-21T00:01:04;97911.88;;;11.40;80.80
9746;BME280;4912;50.836;12.958;2023-03-21T00:03:35;97911.97;;;11.22;77.89
9746;BME280;4912;50.836;12.958;2023-03-21T00:06:07;97914.50;;;11.11;78.80
9746;BME280;4912;50.836;12.958;2023-03-21T00:08:39;97909.41;;;11.09;79.17
9746;BME280;4912;50.836;12.958;2023-03-21T00:11:13;97909.53;;;11.15;78.75
9746;BME280;4912;50.836;12.958;2023-03-21T00:13:43;97902.78;;;11.16;78.80
9746;BME280;4912;50.836;12.958;2023-03-21T00:16:16;97898.72;;;11.26;78.80
9746;BME280;4912;50.836;12.958;2023-03-21T00:18:56;97899.78;;;11.28;77.79
9746;BME280;4912;50.836;12.958;2023-03-21T00:21:29;97898.94;;;11.37;78.14
9746;BME280;4912;50.836;12.958;2023-03-21T00:24:20;97900.72;;;11.25;77.00
9746;BME280;4912;50.836;12.958;2023-03-21T00:26:53;97897.81;;;11.20;76.40
9746;BME280;4912;50.836;12.958;2023-03-21T00:29:43;97895.88;;;11.11;76.46
9746;BME280;4912;50.836;12.958;2023-03-21T00:32:18;97888.16;;;11.15;75.70
9746;BME280;4912;50.836;12.958;2023-03-21T00:34:49;97894.34;;;11.10;76.23
9746;BME280;4912;50.836;12.958;2023-03-21T00:37:39;97898.06;;;11.07;74.99
9746;BME280;4912;50.836;12.958;2023-03-21T00:40:11;97893.88;;;11.12;74.94
9746;BME280;4912;50.836;12.958;2023-03-21T00:42:56;97891.25;;;11.08;74.61
9746;BME280;4912;50.836;12.958;2023-03-21T00:45:26;97896.81;;;11.08;75.04
9746;BME280;4912;50.836;12.958;2023-03-21T00:48:00;97893.44;;;11.04;75.41
9746;BME280;4912;50.836;12.958;2023-03-21T00:50:30;97888.03;;;11.09;75.67
9746;BME280;4912;50.836;12.958;2023-03-21T00:53:01;97891.88;;;11.12;75.39
9746;BME280;4912;50.836;12.958;2023-03-21T00:55:32;97894.53;;;11.06;75.54
9746;BME280;4912;50.836;12.958;2023-03-21T00:58:07;97893.13;;;11.02;76.06
9746;BME280;4912;50.836;12.958;2023-03-21T01:00:37;97884.97;;;11.07;76.37
9746;BME280;4912;50.836;12.958;2023-03-21T01:03:10;97891.38;;;11.14;76.40
9746;BME280;4912;50.836;12.958;2023-03-21T01:05:51;97893.31;;;10.98;74.42
9746;BME280;4912;50.836;12.958;2023-03-21T01:08:33;97881.34;;;10.92;74.47
9746;BME280;4912;50.836;12.958;2023-03-21T01:11:22;97880.19;;;10.75;73.71
9746;BME280;4912;50.836;12.958;2023-03-21T01:13:57;97878.91;;;10.85;73.76
9746;BME280;4912;50.836;12.958;2023-03-21T01:16:47;97875.56;;;10.81;73.12
9746;BME280;4912;50.836;12.958;2023-03-21T01:19:20;97880.91;;;10.85;73.01
9746;BME280;4912;50.836;12.958;2023-03-21T01:22:14;97880.97;;;10.76;72.53
9746;BME280;4912;50.836;12.958;2023-03-21T01:24:45;97878.50;;;10.78;72.99
9746;BME280;4912;50.836;12.958;2023-03-21T01:27:24;97880.84;;;10.70;72.78
9746;BME280;4912;50.836;12.958;2023-03-21T01:29:57;97879.13;;;10.73;72.99
9746;BME280;4912;50.836;12.958;2023-03-21T01:32:28;97891.91;;;10.70;72.59
9746;BME280;4912;50.836;12.958;2023-03-21T01:34:59;97884.53;;;10.67;72.76
9746;BME280;4912;50.836;12.958;2023-03-21T01:37:29;97889.91;;;10.61;72.82
9746;BME280;4912;50.836;12.958;2023-03-21T01:40:01;97885.91;;;10.72;73.23
9746;BME280;4912;50.836;12.958;2023-03-21T01:42:32;97888.69;;;10.72;72.19
9746;BME280;4912;50.836;12.958;2023-03-21T01:48:44;97876.84;;;10.62;72.10
9746;BME280;4912;50.836;12.958;2023-03-21T01:51:15;97887.47;;;10.63;72.87
9746;BME280;4912;50.836;12.958;2023-03-21T01:53:57;97879.63;;;10.62;72.05
9746;BME280;4912;50.836;12.958;2023-03-21T01:56:32;97887.66;;;10.51;72.14
9746;BME280;4912;50.836;12.958;2023-03-21T01:59:10;97882.44;;;10.44;72.57
9746;BME280;4912;50.836;12.958;2023-03-21T02:02:07;97889.38;;;10.48;72.20
9746;BME280;4912;50.836;12.958;2023-03-21T02:04:56;97887.50;;;10.45;72.67
9746;BME280;4912;50.836;12.958;2023-03-21T02:07:29;97880.88;;;10.52;72.48
9746;BME280;4912;50.836;12.958;2023-03-21T02:10:09;97876.13;;;10.52;72.40
9746;BME280;4912;50.836;12.958;2023-03-21T02:12:45;97872.28;;;10.59;72.66
9746;BME280;4912;50.836;12.958;2023-03-21T02:15:16;97867.63;;;10.65;72.31
9746;BME280;4912;50.836;12.958;2023-03-21T02:18:08;97873.94;;;10.65;72.39
9746;BME280;4912;50.836;12.958;2023-03-21T02:24:32;97871.97;;;10.57;71.79
9746;BME280;4912;50.836;12.958;2023-03-21T02:27:26;97865.34;;;10.54;71.73
9746;BME280;4912;50.836;12.958;2023-03-21T02:30:29;97860.94;;;10.48;71.34
9746;BME280;4912;50.836;12.958;2023-03-21T02:36:26;97860.16;;;10.47;71.18
9746;BME280;4912;50.836;12.958;2023-03-21T02:39:07;97855.72;;;10.41;71.05
9746;BME280;4912;50.836;12.958;2023-03-21T02:41:46;97854.69;;;10.29;71.43
9746;BME280;4912;50.836;12.958;2023-03-21T02:44:32;97849.28;;;10.35;72.14
9746;BME280;4912;50.836;12.958;2023-03-21T02:47:08;97846.19;;;10.42;72.21
9746;BME280;4912;50.836;12.958;2023-03-21T02:49:45;97846.16;;;10.51;71.94
9746;BME280;4912;50.836;12.958;2023-03-21T02:52:21;97848.75;;;10.54;71.70
9746;BME280;4912;50.836;12.958;2023-03-21T02:55:13;97846.47;;;10.44;71.66
9746;BME280;4912;50.836;12.958;2023-03-21T02:57:53;97842.63;;;10.50;71.88
9746;BME280;4912;50.836;12.958;2023-03-21T03:00:39;97841.84;;;10.59;71.99
9746;BME280;4912;50.836;12.958;2023-03-21T03:03:18;97840.31;;;10.49;71.78
9746;BME280;4912;50.836;12.958;2023-03-21T03:06:03;97840.31;;;10.49;72.38
9746;BME280;4912;50.836;12.958;2023-03-21T03:08:47;97839.75;;;10.36;72.61
9746;BME280;4912;50.836;12.958;2023-03-21T03:11:33;97846.03;;;10.45;73.22
9746;BME280;4912;50.836;12.958;2023-03-21T03:17:34;97846.03;;;10.45;73.37
9746;BME280;4912;50.836;12.958;2023-03-21T03:20:32;97847.56;;;10.46;73.45
9746;BME280;4912;50.836;12.958;2023-03-21T03:23:14;97847.38;;;10.50;73.41
9746;BME280;4912;50.836;12.958;2023-03-21T03:25:52;97842.94;;;10.43;73.95
9746;BME280;4912;50.836;12.958;2023-03-21T03:28:30;97847.44;;;10.41;73.67
9746;BME280;4912;50.836;12.958;2023-03-21T03:31:09;97840.03;;;10.38;74.23
9746;BME280;4912;50.836;12.958;2023-03-21T03:33:49;97847.44;;;10.32;74.42
9746;BME280;4912;50.836;12.958;2023-03-21T03:36:26;97852.06;;;10.35;74.43
9746;BME280;4912;50.836;12.958;2023-03-21T03:39:11;97852.38;;;10.27;75.06
9746;BME280;4912;50.836;12.958;2023-03-21T03:41:51;97853.31;;;10.24;75.16
9746;BME280;4912;50.836;12.958;2023-03-21T03:44:52;97856.72;;;10.01;76.88
9746;BME280;4912;50.836;12.958;2023-03-21T03:47:26;97854.53;;;10.05;77.32
9746;BME280;4912;50.836;12.958;2023-03-21T03:50:12;97859.28;;;10.14;77.53
9746;BME280;4912;50.836;12.958;2023-03-21T03:52:48;97866.34;;;10.15;77.50
9746;BME280;4912;50.836;12.958;2023-03-21T03:55:28;97860.97;;;10.11;77.97
9746;BME280;4912;50.836;12.958;2023-03-21T03:58:11;97858.22;;;10.02;78.59
9746;BME280;4912;50.836;12.958;2023-03-21T04:00:54;97859.63;;;9.89;80.11
9746;BME280;4912;50.836;12.958;2023-03-21T04:03:25;97863.78;;;9.66;82.06
9746;BME280;4912;50.836;12.958;2023-03-21T04:06:12;97855.19;;;9.64;83.49
9746;BME280;4912;50.836;12.958;2023-03-21T04:08:42;97859.94;;;9.63;84.04
9746;BME280;4912;50.836;12.958;2023-03-21T04:11:13;97860.72;;;9.64;83.95
9746;BME280;4912;50.836;12.958;2023-03-21T04:13:49;97855.03;;;9.67;84.14
9746;BME280;4912;50.836;12.958;2023-03-21T04:16:24;97867.47;;;9.54;84.77
9746;BME280;4912;50.836;12.958;2023-03-21T04:19:00;97866.53;;;9.57;85.39
9746;BME280;4912;50.836;12.958;2023-03-21T04:21:30;97863.31;;;9.40;86.81
9746;BME280;4912;50.836;12.958;2023-03-21T04:24:01;97880.94;;;9.33;87.76
9746;BME280;4912;50.836;12.958;2023-03-21T04:26:33;97867.84;;;9.25;88.77
9746;BME280;4912;50.836;12.958;2023-03-21T04:29:34;97874.88;;;9.08;90.30
9746;BME280;4912;50.836;12.958;2023-03-21T04:32:42;97874.09;;;8.98;92.00
9746;BME280;4912;50.836;12.958;2023-03-21T04:35:24;97869.22;;;9.11;91.87
9746;BME280;4912;50.836;12.958;2023-03-21T04:37:54;97873.81;;;9.05;92.08
9746;BME280;4912;50.836;12.958;2023-03-21T04:40:25;97869.03;;;8.96;92.86
9746;BME280;4912;50.836;12.958;2023-03-21T04:42:56;97883.13;;;8.98;93.73
9746;BME280;4912;50.836;12.958;2023-03-21T04:45:27;97874.06;;;8.89;95.02
9746;BME280;4912;50.836;12.958;2023-03-21T04:48:02;97867.63;;;8.83;96.95
9746;BME280;4912;50.836;12.958;2023-03-21T04:50:33;97870.66;;;8.76;98.93
9746;BME280;4912;50.836;12.958;2023-03-21T04:53:04;97875.84;;;8.74;100.00
9746;BME280;4912;50.836;12.958;2023-03-21T04:55:35;97869.09;;;8.75;100.00
9746;BME280;4912;50.836;12.958;2023-03-21T04:58:06;97865.75;;;8.80;100.00
9746;BME280;4912;50.836;12.958;2023-03-21T05:00:36;97870.91;;;8.69;100.00
9746;BME280;4912;50.836;12.958;2023-03-21T05:03:09;97865.56;;;8.65;100.00
9746;BME280;4912;50.836;12.958;2023-03-21T05:05:47;97866.19;;;8.69;100.00
9746;BME280;4912;50.836;12.958;2023-03-21T05:08:18;97859.63;;;8.76;100.00
9746;BME280;4912;50.836;12.958;2023-03-21T05:10:48;97858.69;;;8.70;100.00
9746;BME280;4912;50.836;12.958;2023-03-21T05:13:19;97854.88;;;8.76;100.00
9746;BME280;4912;50.836;12.958;2023-03-21T05:15:50;97851.47;;;8.72;100.00
9746;BME280;4912;50.836;12.958;2023-03-21T05:18:23;97854.69;;;8.71;100.00
9746;BME280;4912;50.836;12.958;2023-03-21T05:21:04;97841.59;;;8.93;100.00
9746;BME280;4912;50.836;12.958;2023-03-21T05:23:38;97847.69;;;8.88;100.00
9746;BME280;4912;50.836;12.958;2023-03-21T05:26:09;97838.66;;;8.96;100.00
9746;BME280;4912;50.836;12.958;2023-03-21T05:28:49;97844.66;;;8.95;100.00
9746;BME280;4912;50.836;12.958;2023-03-21T05:31:20;97849.88;;;8.93;100.00
9746;BME280;4912;50.836;12.958;2023-03-21T05:34:00;97850.47;;;8.88;100.00
9746;BME280;4912;50.836;12.958;2023-03-21T05:36:31;97845.06;;;8.84;100.00
9746;BME280;4912;50.836;12.958;2023-03-21T05:39:06;97846.50;;;8.89;100.00
9746;BME280;4912;50.836;12.958;2023-03-21T05:41:41;97839.28;;;8.91;100.00
9746;BME280;4912;50.836;12.958;2023-03-21T05:44:12;97839.72;;;8.90;100.00
9746;BME280;4912;50.836;12.958;2023-03-21T05:46:42;97844.34;;;9.02;100.00
9746;BME280;4912;50.836;12.958;2023-03-21T05:49:15;97845.13;;;9.02;100.00
9746;BME280;4912;50.836;12.958;2023-03-21T05:51:53;97843.00;;;9.07;100.00
9746;BME280;4912;50.836;12.958;2023-03-21T05:54:23;97847.44;;;9.13;100.00
9746;BME280;4912;50.836;12.958;2023-03-21T05:56:54;97849.47;;;9.13;100.00
9746;BME280;4912;50.836;12.958;2023-03-21T05:59:44;97838.84;;;9.02;100.00
9746;BME280;4912;50.836;12.958;2023-03-21T06:02:16;97851.75;;;9.14;100.00
9746;BME280;4912;50.836;12.958;2023-03-21T06:04:50;97848.09;;;9.17;100.00
9746;BME280;4912;50.836;12.958;2023-03-21T06:07:22;97848.38;;;9.19;100.00
9746;BME280;4912;50.836;12.958;2023-03-21T06:09:54;97856.06;;;9.24;100.00
9746;BME280;4912;50.836;12.958;2023-03-21T06:12:24;97863.72;;;9.11;100.00
9746;BME280;4912;50.836;12.958;2023-03-21T06:14:54;97856.03;;;9.15;100.00
9746;BME280;4912;50.836;12.958;2023-03-21T06:17:40;97860.91;;;9.02;100.00
9746;BME280;4912;50.836;12.958;2023-03-21T06:20:14;97860.50;;;9.13;100.00
9746;BME280;4912;50.836;12.958;2023-03-21T06:22:49;97855.91;;;9.28;100.00
9746;BME280;4912;50.836;12.958;2023-03-21T06:25:20;97866.03;;;9.31;100.00
9746;BME280;4912;50.836;12.958;2023-03-21T06:27:50;97868.22;;;9.36;100.00
9746;BME280;4912;50.836;12.958;2023-03-21T06:30:21;97864.97;;;9.37;100.00
9746;BME280;4912;50.836;12.958;2023-03-21T06:33:06;97874.16;;;9.25;100.00
9746;BME280;4912;50.836;12.958;2023-03-21T06:35:39;97867.53;;;9.14;100.00
9746;BME280;4912;50.836;12.958;2023-03-21T06:38:10;97861.88;;;9.26;100.00
9746;BME280;4912;50.836;12.958;2023-03-21T06:40:41;97868.94;;;9.18;100.00
9746;BME280;4912;50.836;12.958;2023-03-21T06:43:11;97868.31;;;9.14;100.00
9746;BME280;4912;50.836;12.958;2023-03-21T06:45:42;97871.25;;;9.38;100.00
9746;BME280;4912;50.836;12.958;2023-03-21T06:48:13;97870.81;;;9.39;100.00
9746;BME280;4912;50.836;12.958;2023-03-21T06:50:51;97863.59;;;9.33;99.80
9746;BME280;4912;50.836;12.958;2023-03-21T06:53:28;97869.59;;;9.40;100.00
9746;BME280;4912;50.836;12.958;2023-03-21T06:56:18;97869.59;;;9.40;99.69
9746;BME280;4912;50.836;12.958;2023-03-21T06:58:48;97865.59;;;9.41;99.61
9746;BME280;4912;50.836;12.958;2023-03-21T07:01:40;97876.66;;;9.41;99.13
9746;BME280;4912;50.836;12.958;2023-03-21T07:04:12;97873.72;;;9.36;99.99
9746;BME280;4912;50.836;12.958;2023-03-21T07:06:45;97873.91;;;9.41;99.46
9746;BME280;4912;50.836;12.958;2023-03-21T07:09:19;97880.94;;;9.61;98.07
9746;BME280;4912;50.836;12.958;2023-03-21T07:11:56;97874.38;;;9.58;97.60
9746;BME280;4912;50.836;12.958;2023-03-21T07:14:38;97871.75;;;9.73;96.94
9746;BME280;4912;50.836;12.958;2023-03-21T07:17:09;97869.91;;;9.70;96.07
9746;BME280;4912;50.836;12.958;2023-03-21T07:19:39;97861.63;;;9.70;96.12
9746;BME280;4912;50.836;12.958;2023-03-21T07:22:14;97872.81;;;9.66;95.76
9746;BME280;4912;50.836;12.958;2023-03-21T07:24:44;97868.06;;;9.85;95.45
9746;BME280;4912;50.836;12.958;2023-03-21T07:27:36;97857.94;;;9.91;94.35
9746;BME280;4912;50.836;12.958;2023-03-21T07:30:09;97861.28;;;10.04;93.49
9746;BME280;4912;50.836;12.958;2023-03-21T07:32:40;97869.56;;;10.13;91.65
9746;BME280;4912;50.836;12.958;2023-03-21T07:35:12;97862.53;;;10.12;91.39
9746;BME280;4912;50.836;12.958;2023-03-21T07:37:47;97862.81;;;10.14;91.44
9746;BME280;4912;50.836;12.958;2023-03-21T07:40:18;97863.91;;;10.17;91.44
9746;BME280;4912;50.836;12.958;2023-03-21T07:42:48;97864.75;;;10.50;90.23
9746;BME280;4912;50.836;12.958;2023-03-21T07:45:28;97865.91;;;10.77;86.99
9746;BME280;4912;50.836;12.958;2023-03-21T07:47:59;97864.88;;;10.65;85.23
9746;BME280;4912;50.836;12.958;2023-03-21T07:50:32;97860.69;;;11.02;85.38
9746;BME280;4912;50.836;12.958;2023-03-21T07:53:08;97866.09;;;11.30;81.48
9746;BME280;4912;50.836;12.958;2023-03-21T07:55:39;97867.34;;;11.20;81.41
9746;BME280;4912;50.836;12.958;2023-03-21T07:58:09;97859.69;;;11.15;81.49
9746;BME280;4912;50.836;12.958;2023-03-21T08:00:40;97869.78;;;11.27;80.10
9746;BME280;4912;50.836;12.958;2023-03-21T08:03:10;97875.66;;;11.43;80.30
9746;BME280;4912;50.836;12.958;2023-03-21T08:05:41;97873.91;;;11.55;78.71
9746;BME280;4912;50.836;12.958;2023-03-21T08:08:14;97869.72;;;11.60;78.18
9746;BME280;4912;50.836;12.958;2023-03-21T08:10:44;97876.16;;;11.42;78.29
9746;BME280;4912;50.836;12.958;2023-03-21T08:13:15;97876.94;;;11.42;78.33
9746;BME280;4912;50.836;12.958;2023-03-21T08:15:45;97875.63;;;11.29;79.18
9746;BME280;4912;50.836;12.958;2023-03-21T08:18:15;97869.66;;;11.45;79.94
9746;BME280;4912;50.836;12.958;2023-03-21T08:20:50;97880.22;;;11.56;78.41
9746;BME280;4912;50.836;12.958;2023-03-21T08:23:24;97875.28;;;11.36;78.67
9746;BME280;4912;50.836;12.958;2023-03-21T08:25:56;97886.72;;;11.29;78.83
9746;BME280;4912;50.836;12.958;2023-03-21T08:28:27;97882.47;;;11.19;78.98
9746;BME280;4912;50.836;12.958;2023-03-21T08:30:58;97870.66;;;11.09;79.23
9746;BME280;4912;50.836;12.958;2023-03-21T08:33:28;97871.59;;;11.06;80.03
9746;BME280;4912;50.836;12.958;2023-03-21T08:35:59;97877.31;;;11.50;79.65
9746;BME280;4912;50.836;12.958;2023-03-21T08:38:32;97866.19;;;11.59;77.08
9746;BME280;4912;50.836;12.958;2023-03-21T08:41:03;97876.31;;;11.86;75.56
9746;BME280;4912;50.836;12.958;2023-03-21T08:43:33;97871.50;;;11.72;76.50
9746;BME280;4912;50.836;12.958;2023-03-21T08:46:04;97862.31;;;11.66;76.74
9746;BME280;4912;50.836;12.958;2023-03-21T08:48:35;97866.34;;;11.79;76.22
9746;BME280;4912;50.836;12.958;2023-03-21T08:51:06;97862.50;;;12.01;74.91
9746;BME280;4912;50.836;12.958;2023-03-21T08:53:41;97863.09;;;12.34;73.48
9746;BME280;4912;50.836;12.958;2023-03-21T08:56:11;97865.00;;;12.43;72.42
9746;BME280;4912;50.836;12.958;2023-03-21T08:58:42;97865.63;;;12.82;71.83
9746;BME280;4912;50.836;12.958;2023-03-21T09:01:13;97860.34;;;13.33;68.30
9746;BME280;4912;50.836;12.958;2023-03-21T09:03:43;97861.44;;;13.82;66.64
9746;BME280;4912;50.836;12.958;2023-03-21T09:06:14;97861.66;;;14.50;63.53
9746;BME280;4912;50.836;12.958;2023-03-21T09:08:47;97861.06;;;15.51;58.68
9746;BME280;4912;50.836;12.958;2023-03-21T09:11:19;97860.13;;;16.69;55.67
9746;BME280;4912;50.836;12.958;2023-03-21T09:13:51;97853.00;;;16.85;51.79
9746;BME280;4912;50.836;12.958;2023-03-21T09:16:21;97853.97;;;17.21;51.90
9746;BME280;4912;50.836;12.958;2023-03-21T09:18:52;97850.94;;;17.30;50.42
9746;BME280;4912;50.836;12.958;2023-03-21T09:21:26;97851.22;;;16.43;52.95
9746;BME280;4912;50.836;12.958;2023-03-21T09:24:00;97849.94;;;16.44;54.06
9746;BME280;4912;50.836;12.958;2023-03-21T09:26:32;97847.00;;;17.55;50.88
9746;BME280;4912;50.836;12.958;2023-03-21T09:29:06;97842.09;;;16.93;51.75
9746;BME280;4912;50.836;12.958;2023-03-21T09:31:36;97844.88;;;16.48;53.11
9746;BME280;4912;50.836;12.958;2023-03-21T09:34:10;97841.31;;;16.42;53.22
9746;BME280;4912;50.836;12.958;2023-03-21T09:36:41;97828.13;;;16.82;52.33
9746;BME280;4912;50.836;12.958;2023-03-21T09:39:17;97821.59;;;17.53;51.93
9746;BME280;4912;50.836;12.958;2023-03-21T09:41:56;97822.06;;;17.69;50.12
9746;BME280;4912;50.836;12.958;2023-03-21T09:44:54;97814.72;;;18.48;48.20
9746;BME280;4912;50.836;12.958;2023-03-21T09:47:37;97825.50;;;17.91;48.58
9746;BME280;4912;50.836;12.958;2023-03-21T09:50:13;97809.97;;;18.37;47.88
9746;BME280;4912;50.836;12.958;2023-03-21T09:52:49;97821.25;;;18.26;47.77
9746;BME280;4912;50.836;12.958;2023-03-21T09:55:27;97823.59;;;18.16;48.52
9746;BME280;4912;50.836;12.958;2023-03-21T09:58:04;97824.97;;;17.98;49.06
9746;BME280;4912;50.836;12.958;2023-03-21T10:00:39;97817.72;;;17.73;50.13
9746;BME280;4912;50.836;12.958;2023-03-21T10:03:18;97810.34;;;18.17;49.58
9746;BME280;4912;50.836;12.958;2023-03-21T10:05:54;97810.00;;;18.67;48.38
9746;BME280;4912;50.836;12.958;2023-03-21T10:08:29;97807.00;;;18.24;48.24
9746;BME280;4912;50.836;12.958;2023-03-21T10:11:09;97801.25;;;18.05;49.86
9746;BME280;4912;50.836;12.958;2023-03-21T10:13:45;97801.56;;;18.02;49.14
9746;BME280;4912;50.836;12.958;2023-03-21T10:16:24;97798.41;;;18.46;48.59
9746;BME280;4912;50.836;12.958;2023-03-21T10:18:58;97788.97;;;18.19;48.12
9746;BME280;4912;50.836;12.958;2023-03-21T10:21:29;97795.28;;;18.25;48.96
9746;BME280;4912;50.836;12.958;2023-03-21T10:24:21;97786.53;;;17.99;49.67
9746;BME280;4912;50.836;12.958;2023-03-21T10:26:56;97789.22;;;17.75;50.73
9746;BME280;4912;50.836;12.958;2023-03-21T10:29:29;97782.41;;;17.59;51.53
9746;BME280;4912;50.836;12.958;2023-03-21T10:32:03;97777.72;;;17.84;51.44
9746;BME280;4912;50.836;12.958;2023-03-21T10:34:36;97769.13;;;18.77;50.39
9746;BME280;4912;50.836;12.958;2023-03-21T10:37:10;97769.03;;;18.88;48.18
9746;BME280;4912;50.836;12.958;2023-03-21T10:39:44;97769.41;;;18.14;49.21
9746;BME280;4912;50.836;12.958;2023-03-21T10:42:21;97770.53;;;18.29;49.05
9746;BME280;4912;50.836;12.958;2023-03-21T10:44:54;97762.75;;;18.17;49.45
9746;BME280;4912;50.836;12.958;2023-03-21T10:47:28;97766.56;;;18.49;49.46
9746;BME280;4912;50.836;12.958;2023-03-21T10:50:01;97763.75;;;18.19;49.07
9746;BME280;4912;50.836;12.958;2023-03-21T10:52:46;97762.75;;;18.47;48.67
9746;BME280;4912;50.836;12.958;2023-03-21T10:55:25;97765.50;;;18.58;48.11
9746;BME280;4912;50.836;12.958;2023-03-21T10:58:03;97753.78;;;19.27;47.15
9746;BME280;4912;50.836;12.958;2023-03-21T11:00:39;97745.69;;;20.35;46.11
9746;BME280;4912;50.836;12.958;2023-03-21T11:03:19;97752.59;;;21.58;42.50
9746;BME280;4912;50.836;12.958;2023-03-21T11:05:53;97755.88;;;21.36;42.10
9746;BME280;4912;50.836;12.958;2023-03-21T11:08:25;97742.47;;;21.29;42.69
9746;BME280;4912;50.836;12.958;2023-03-21T11:11:01;97747.88;;;21.40;43.00
9746;BME280;4912;50.836;12.958;2023-03-21T11:13:37;97759.38;;;21.76;41.75
9746;BME280;4912;50.836;12.958;2023-03-21T11:16:13;97740.41;;;22.24;39.74
9746;BME280;4912;50.836;12.958;2023-03-21T11:18:55;97743.34;;;22.39;39.61
9746;BME280;4912;50.836;12.958;2023-03-21T11:21:26;97741.09;;;22.37;39.45
9746;BME280;4912;50.836;12.958;2023-03-21T11:23:56;97734.88;;;22.39;39.72
9746;BME280;4912;50.836;12.958;2023-03-21T11:26:30;97740.53;;;22.18;39.44
9746;BME280;4912;50.836;12.958;2023-03-21T11:29:26;97733.22;;;22.02;39.59
9746;BME280;4912;50.836;12.958;2023-03-21T11:32:01;97738.59;;;22.13;40.75
9746;BME280;4912;50.836;12.958;2023-03-21T11:34:44;97733.53;;;21.64;40.00
9746;BME280;4912;50.836;12.958;2023-03-21T11:37:24;97734.13;;;21.50;39.85
9746;BME280;4912;50.836;12.958;2023-03-21T11:40:05;97729.50;;;21.26;40.88
9746;BME280;4912;50.836;12.958;2023-03-21T11:42:48;97721.06;;;21.26;41.22
9746;BME280;4912;50.836;12.958;2023-03-21T11:45:24;97723.59;;;21.11;40.56
9746;BME280;4912;50.836;12.958;2023-03-21T11:47:57;97714.94;;;21.09;41.10
9746;BME280;4912;50.836;12.958;2023-03-21T11:50:32;97730.81;;;20.54;40.28
9746;BME280;4912;50.836;12.958;2023-03-21T11:53:17;97726.72;;;19.91;42.23
9746;BME280;4912;50.836;12.958;2023-03-21T11:56:10;97712.75;;;20.17;42.49
9746;BME280;4912;50.836;12.958;2023-03-21T11:59:10;97711.50;;;20.90;41.58
9746;BME280;4912;50.836;12.958;2023-03-21T12:01:56;97704.06;;;21.65;38.75
9746;BME280;4912;50.836;12.958;2023-03-21T12:04:40;97707.47;;;21.85;37.47
9746;BME280;4912;50.836;12.958;2023-03-21T12:07:35;97710.78;;;21.62;38.32
9746;BME280;4912;50.836;12.958;2023-03-21T12:10:27;97705.81;;;22.02;37.58
9746;BME280;4912;50.836;12.958;2023-03-21T12:13:11;97700.22;;;22.10;37.34
9746;BME280;4912;50.836;12.958;2023-03-21T12:15:52;97699.47;;;22.72;36.96
9746;BME280;4912;50.836;12.958;2023-03-21T12:18:44;97697.78;;;23.41;36.27
9746;BME280;4912;50.836;12.958;2023-03-21T12:21:32;97680.97;;;23.71;34.79
9746;BME280;4912;50.836;12.958;2023-03-21T12:24:09;97686.69;;;23.43;34.42
9746;BME280;4912;50.836;12.958;2023-03-21T12:26:51;97692.16;;;22.76;35.32
9746;BME280;4912;50.836;12.958;2023-03-21T12:29:39;97677.75;;;22.18;36.00
9746;BME280;4912;50.836;12.958;2023-03-21T12:32:24;97677.22;;;21.98;36.38
9746;BME280;4912;50.836;12.958;2023-03-21T12:35:13;97665.38;;;21.79;37.14
9746;BME280;4912;50.836;12.958;2023-03-21T12:37:59;97669.47;;;21.44;37.98
9746;BME280;4912;50.836;12.958;2023-03-21T12:40:54;97665.63;;;20.81;38.91
9746;BME280;4912;50.836;12.958;2023-03-21T12:43:46;97660.00;;;20.81;39.71
9746;BME280;4912;50.836;12.958;2023-03-21T12:46:25;97656.97;;;20.93;39.43
9746;BME280;4912;50.836;12.958;2023-03-21T12:49:01;97649.19;;;20.59;40.81
9746;BME280;4912;50.836;12.958;2023-03-21T12:51:40;97647.03;;;20.78;40.01
9746;BME280;4912;50.836;12.958;2023-03-21T12:54:19;97653.97;;;20.91;39.51
9746;BME280;4912;50.836;12.958;2023-03-21T12:56:59;97646.16;;;20.70;39.59
9746;BME280;4912;50.836;12.958;2023-03-21T12:59:34;97649.63;;;20.37;39.02
9746;BME280;4912;50.836;12.958;2023-03-21T13:02:16;97637.13;;;20.19;39.54
9746;BME280;4912;50.836;12.958;2023-03-21T13:04:56;97636.53;;;20.39;39.93
9746;BME280;4912;50.836;12.958;2023-03-21T13:07:36;97638.66;;;19.88;40.23
9746;BME280;4912;50.836;12.958;2023-03-21T13:10:13;97638.25;;;19.66;40.76
9746;BME280;4912;50.836;12.958;2023-03-21T13:12:58;97639.34;;;19.44;41.16
9746;BME280;4912;50.836;12.958;2023-03-21T13:15:46;97628.66;;;20.06;40.49
9746;BME280;4912;50.836;12.958;2023-03-21T13:18:31;97628.50;;;21.56;36.90
9746;BME280;4912;50.836;12.958;2023-03-21T13:21:13;97632.94;;;20.92;37.68
9746;BME280;4912;50.836;12.958;2023-03-21T13:24:00;97623.94;;;20.14;38.95
9746;BME280;4912;50.836;12.958;2023-03-21T13:26:33;97621.19;;;19.95;39.91
9746;BME280;4912;50.836;12.958;2023-03-21T13:29:14;97612.38;;;20.18;39.93
9746;BME280;4912;50.836;12.958;2023-03-21T13:31:53;97617.19;;;20.04;40.54
9746;BME280;4912;50.836;12.958;2023-03-21T13:34:25;97615.13;;;19.91;40.21
9746;BME280;4912;50.836;12.958;2023-03-21T13:36:57;97612.28;;;19.78;40.66
9746;BME280;4912;50.836;12.958;2023-03-21T13:39:30;97609.56;;;19.73;40.98
9746;BME280;4912;50.836;12.958;2023-03-21T13:42:03;97605.50;;;19.87;41.92
9746;BME280;4912;50.836;12.958;2023-03-21T13:44:40;97610.25;;;19.92;40.99
9746;BME280;4912;50.836;12.958;2023-03-21T13:47:29;97596.00;;;19.90;41.41
9746;BME280;4912;50.836;12.958;2023-03-21T13:50:20;97592.16;;;19.74;41.51
9746;BME280;4912;50.836;12.958;2023-03-21T13:53:17;97588.56;;;19.92;42.00
9746;BME280;4912;50.836;12.958;2023-03-21T13:56:23;97590.41;;;20.03;42.45
9746;BME280;4912;50.836;12.958;2023-03-21T13:58:58;97579.50;;;19.99;41.57
9746;BME280;4912;50.836;12.958;2023-03-21T14:01:33;97588.25;;;19.96;42.14
9746;BME280;4912;50.836;12.958;2023-03-21T14:04:13;97576.19;;;19.69;43.44
9746;BME280;4912;50.836;12.958;2023-03-21T14:06:48;97581.50;;;19.73;42.85
9746;BME280;4912;50.836;12.958;2023-03-21T14:09:33;97575.06;;;19.59;42.82
9746;BME280;4912;50.836;12.958;2023-03-21T14:12:13;97569.31;;;19.51;42.89
9746;BME280;4912;50.836;12.958;2023-03-21T14:14:48;97571.03;;;19.73;42.57
9746;BME280;4912;50.836;12.958;2023-03-21T14:17:25;97565.88;;;19.90;41.33
9746;BME280;4912;50.836;12.958;2023-03-21T14:19:59;97561.59;;;20.02;41.41